createdAt,value
2023-01-29T00:00:24.742Z,20.42
2023-01-29T00:02:52.196Z,20.45
2023-01-29T00:05:27.818Z,21.10
2023-01-29T00:07:56.376Z,24.52
2023-01-29T00:10:24.592Z,22.02
2023-01-29T00:12:51.801Z,21.23
2023-01-29T00:15:18.835Z,22.08
2023-01-29T00:17:45.695Z,20.33
2023-01-29T00:20:12.707Z,21.23
2023-01-29T00:22:39.347Z,23.25
2023-01-29T00:25:06.642Z,21.92
2023-01-29T00:27:34.410Z,21.63
2023-01-29T00:30:12.734Z,21.27
2023-01-29T00:32:40.468Z,20.88
2023-01-29T00:35:09.023Z,19.83
2023-01-29T00:37:36.194Z,20.58
2023-01-29T00:40:03.844Z,20.85
2023-01-29T00:42:49.097Z,20.10
2023-01-29T00:45:15.848Z,21.25
2023-01-29T00:47:42.585Z,20.17
2023-01-29T00:50:11.434Z,20.05
2023-01-29T00:55:06.032Z,20.13
2023-01-29T00:57:34.109Z,19.60
2023-01-29T01:00:01.368Z,19.90
2023-01-29T01:02:47.437Z,19.38
2023-01-29T01:05:19.183Z,18.60
2023-01-29T01:07:51.065Z,19.67
2023-01-29T01:10:24.458Z,19.27
2023-01-29T01:13:12.570Z,17.13
2023-01-29T01:15:40.134Z,18.92
2023-01-29T01:18:06.912Z,18.35
2023-01-29T01:20:34.899Z,17.88
2023-01-29T01:23:02.097Z,18.50
2023-01-29T01:25:29.159Z,16.77
2023-01-29T01:27:57.472Z,18.45
2023-01-29T01:30:24.559Z,18.17
2023-01-29T01:32:51.565Z,18.58
2023-01-29T01:35:18.497Z,19.50
2023-01-29T01:37:45.113Z,19.67
2023-01-29T01:40:18.376Z,18.83
2023-01-29T01:42:49.316Z,18.73
2023-01-29T01:45:33.583Z,18.77
2023-01-29T01:48:13.068Z,18.80
2023-01-29T01:51:03.411Z,18.23
2023-01-29T01:53:43.607Z,18.45
2023-01-29T01:56:14.140Z,19.25
2023-01-29T01:58:46.993Z,20.02
2023-01-29T02:01:13.932Z,18.85
2023-01-29T02:04:11.323Z,20.27
2023-01-29T02:06:59.191Z,20.73
2023-01-29T02:09:46.487Z,19.58
2023-01-29T02:12:16.222Z,19.15
2023-01-29T02:14:44.094Z,19.10
2023-01-29T02:17:13.985Z,19.50
2023-01-29T02:20:07.688Z,18.33
2023-01-29T02:22:56.099Z,18.98
2023-01-29T02:25:44.902Z,19.73
2023-01-29T02:28:25.472Z,18.25
2023-01-29T02:31:13.340Z,19.50
2023-01-29T02:34:17.337Z,19.95
2023-01-29T02:37:03.208Z,19.05
2023-01-29T02:39:48.024Z,20.13
2023-01-29T02:42:35.756Z,18.85
2023-01-29T02:45:09.679Z,20.20
2023-01-29T02:47:46.532Z,19.17
2023-01-29T02:50:28.376Z,18.75
2023-01-29T02:53:06.430Z,18.55
2023-01-29T02:56:07.135Z,20.00
2023-01-29T02:58:43.022Z,20.38
2023-01-29T03:01:37.124Z,19.63
2023-01-29T03:04:19.480Z,18.92
2023-01-29T03:06:54.392Z,20.77
2023-01-29T03:09:30.180Z,20.30
2023-01-29T03:12:19.935Z,21.13
2023-01-29T03:15:09.595Z,20.40
2023-01-29T03:17:46.906Z,21.33
2023-01-29T03:20:18.939Z,21.23
2023-01-29T03:22:52.367Z,22.30
2023-01-29T03:25:40.436Z,21.50
2023-01-29T03:28:28.829Z,21.17
2023-01-29T03:31:19.941Z,21.08
2023-01-29T03:33:54.537Z,23.23
2023-01-29T03:36:45.333Z,20.58
2023-01-29T03:39:13.647Z,21.63
2023-01-29T03:41:57.772Z,22.30
2023-01-29T03:44:40.260Z,22.75
2023-01-29T03:47:42.053Z,23.98
2023-01-29T03:50:18.068Z,24.35
2023-01-29T03:53:14.255Z,24.13
2023-01-29T03:56:07.271Z,24.80
2023-01-29T03:58:45.165Z,24.35
2023-01-29T04:01:34.075Z,25.90
2023-01-29T04:04:20.301Z,25.10
2023-01-29T04:06:50.362Z,25.42
2023-01-29T04:09:25.242Z,26.00
2023-01-29T04:12:13.678Z,26.50
2023-01-29T04:14:40.407Z,25.60
2023-01-29T04:17:16.475Z,26.65
2023-01-29T04:19:44.355Z,26.40
2023-01-29T04:22:25.985Z,27.27
2023-01-29T04:24:52.801Z,26.52
2023-01-29T04:27:37.510Z,27.83
2023-01-29T04:30:30.725Z,27.05
2023-01-29T04:33:21.891Z,26.90
2023-01-29T04:36:00.060Z,27.73
2023-01-29T04:38:56.537Z,28.30
2023-01-29T04:41:51.828Z,27.00
2023-01-29T04:44:55.025Z,27.73
2023-01-29T04:47:44.999Z,27.17
2023-01-29T04:50:24.071Z,26.95
2023-01-29T04:53:04.042Z,26.52
2023-01-29T04:55:51.713Z,27.75
2023-01-29T04:58:32.276Z,28.70
2023-01-29T05:01:00.846Z,27.95
2023-01-29T05:03:30.115Z,30.65
2023-01-29T05:05:59.757Z,27.27
2023-01-29T05:08:29.240Z,27.15
2023-01-29T05:10:58.707Z,28.35
2023-01-29T05:13:26.735Z,28.38
2023-01-29T05:15:59.300Z,29.15
2023-01-29T05:18:26.315Z,27.50
2023-01-29T05:20:55.508Z,29.10
2023-01-29T05:23:23.139Z,28.58
2023-01-29T05:25:51.659Z,28.98
2023-01-29T05:28:18.710Z,28.42
2023-01-29T05:30:47.485Z,28.63
2023-01-29T05:33:17.151Z,29.30
2023-01-29T05:35:44.415Z,26.73
2023-01-29T05:38:11.738Z,29.77
2023-01-29T05:40:39.120Z,28.17
2023-01-29T05:43:12.944Z,27.88
2023-01-29T05:45:39.683Z,28.48
2023-01-29T05:48:06.353Z,26.52
2023-01-29T05:50:33.067Z,28.23
2023-01-29T05:53:01.136Z,29.10
2023-01-29T05:55:31.922Z,28.35
2023-01-29T05:57:58.850Z,30.25
2023-01-29T06:00:25.568Z,29.10
2023-01-29T06:02:52.425Z,28.27
2023-01-29T06:05:19.137Z,29.88
2023-01-29T06:07:46.108Z,29.48
2023-01-29T06:10:15.392Z,29.63
2023-01-29T06:12:43.454Z,29.27
2023-01-29T06:15:12.037Z,28.45
2023-01-29T06:17:39.015Z,29.80
2023-01-29T06:20:06.446Z,31.15
2023-01-29T06:22:33.726Z,30.45
2023-01-29T06:25:00.470Z,29.00
2023-01-29T06:27:27.280Z,28.42
2023-01-29T06:29:54.022Z,30.30
2023-01-29T06:32:20.718Z,28.45
2023-01-29T06:34:49.687Z,28.95
2023-01-29T06:37:16.518Z,29.50
2023-01-29T06:39:43.160Z,28.92
2023-01-29T06:42:11.141Z,29.83
2023-01-29T06:44:37.822Z,28.70
2023-01-29T06:47:04.622Z,28.73
2023-01-29T06:49:31.604Z,29.25
2023-01-29T06:51:58.283Z,28.80
2023-01-29T06:54:25.027Z,29.15
2023-01-29T06:56:51.992Z,28.55
2023-01-29T06:59:19.744Z,28.73
2023-01-29T07:01:47.009Z,28.17
2023-01-29T07:04:14.251Z,28.00
2023-01-29T07:06:41.412Z,26.92
2023-01-29T07:09:08.618Z,27.48
2023-01-29T07:11:37.798Z,28.88
2023-01-29T07:14:04.957Z,27.65
2023-01-29T07:16:33.252Z,26.35
2023-01-29T07:19:00.454Z,26.20
2023-01-29T07:21:28.016Z,26.15
2023-01-29T07:23:55.204Z,26.50
2023-01-29T07:26:22.309Z,26.17
2023-01-29T07:28:49.388Z,26.83
2023-01-29T07:31:16.624Z,25.80
2023-01-29T07:33:44.610Z,26.33
2023-01-29T07:36:12.562Z,24.40
2023-01-29T07:38:39.639Z,25.53
2023-01-29T07:41:06.762Z,25.92
2023-01-29T07:43:33.857Z,24.80
2023-01-29T07:46:05.001Z,25.27
2023-01-29T07:48:32.219Z,25.80
2023-01-29T07:50:59.346Z,25.90
2023-01-29T07:53:26.633Z,23.90
2023-01-29T07:55:53.855Z,24.38
2023-01-29T07:58:21.251Z,24.00
2023-01-29T08:00:48.378Z,23.13
2023-01-29T08:03:16.669Z,24.60
2023-01-29T08:05:44.571Z,24.65
2023-01-29T08:08:11.637Z,24.17
2023-01-29T08:10:40.614Z,24.10
2023-01-29T08:13:08.210Z,23.38
2023-01-29T08:15:37.173Z,24.05
2023-01-29T08:18:05.413Z,24.75
2023-01-29T08:20:32.327Z,23.40
2023-01-29T08:23:03.703Z,22.92
2023-01-29T08:25:30.700Z,24.40
2023-01-29T08:27:58.383Z,25.00
2023-01-29T08:30:29.765Z,24.42
2023-01-29T08:32:56.456Z,22.13
2023-01-29T08:35:23.319Z,21.27
2023-01-29T08:38:01.313Z,22.98
2023-01-29T08:40:29.409Z,22.83
2023-01-29T08:43:08.688Z,22.15
2023-01-29T08:45:38.657Z,22.42
2023-01-29T08:48:08.288Z,22.00
2023-01-29T08:50:35.830Z,22.58
2023-01-29T08:53:05.362Z,21.88
2023-01-29T08:55:31.981Z,22.30
2023-01-29T08:57:58.646Z,22.45
2023-01-29T09:00:27.782Z,21.83
2023-01-29T09:02:54.519Z,22.83
2023-01-29T09:05:21.358Z,23.50
2023-01-29T09:07:48.013Z,21.33
2023-01-29T09:10:15.624Z,22.42
2023-01-29T09:12:42.401Z,21.70
2023-01-29T09:15:10.732Z,23.67
2023-01-29T09:17:37.373Z,23.73
2023-01-29T09:20:06.146Z,22.83
2023-01-29T09:22:34.096Z,23.65
2023-01-29T09:25:00.809Z,23.20
2023-01-29T09:27:27.485Z,24.13
2023-01-29T09:29:54.349Z,23.52
2023-01-29T09:32:49.662Z,23.25
2023-01-29T09:35:08.107Z,23.75
2023-01-29T09:37:34.959Z,22.55
2023-01-29T09:40:01.603Z,24.52
2023-01-29T09:42:41.196Z,22.73
2023-01-29T09:45:16.244Z,23.92
2023-01-29T09:47:44.693Z,23.45
2023-01-29T09:50:20.226Z,22.30
2023-01-29T09:52:53.970Z,23.25
2023-01-29T09:55:27.540Z,24.02
2023-01-29T09:58:06.145Z,22.40
2023-01-29T10:00:46.615Z,24.48
2023-01-29T10:03:37.399Z,24.08
2023-01-29T10:06:09.518Z,27.70
2023-01-29T10:09:09.129Z,23.60
2023-01-29T10:12:00.617Z,24.33
2023-01-29T10:14:43.266Z,25.15
2023-01-29T10:17:42.494Z,26.98
2023-01-29T10:20:32.892Z,25.05
2023-01-29T10:23:25.074Z,25.30
2023-01-29T10:25:53.611Z,25.98
2023-01-29T10:28:37.966Z,25.95
2023-01-29T10:31:09.577Z,25.75
2023-01-29T10:33:59.439Z,27.55
2023-01-29T10:36:47.519Z,26.85
2023-01-29T10:39:22.111Z,26.95
2023-01-29T10:42:18.802Z,27.23
2023-01-29T10:45:15.878Z,27.00
2023-01-29T10:48:04.894Z,26.80
2023-01-29T10:51:01.791Z,27.33
2023-01-29T10:53:40.094Z,28.83
2023-01-29T10:56:23.064Z,27.95
2023-01-29T10:59:14.889Z,29.23
2023-01-29T11:01:41.675Z,29.25
2023-01-29T11:04:11.759Z,26.70
2023-01-29T11:06:38.812Z,30.20
2023-01-29T11:09:29.215Z,30.27
2023-01-29T11:12:15.371Z,31.88
2023-01-29T11:14:53.704Z,32.22
2023-01-29T11:17:23.573Z,29.95
2023-01-29T11:19:52.169Z,30.13
2023-01-29T11:22:21.402Z,29.17
2023-01-29T11:25:07.441Z,32.60
2023-01-29T11:27:39.747Z,29.73
2023-01-29T11:30:15.344Z,36.42
2023-01-29T11:32:42.448Z,30.88
2023-01-29T11:35:14.910Z,32.28
2023-01-29T11:37:44.490Z,31.08
2023-01-29T11:40:20.659Z,31.85
2023-01-29T11:42:48.328Z,32.03
2023-01-29T11:45:34.870Z,31.55
2023-01-29T11:48:01.815Z,30.35
2023-01-29T11:50:31.463Z,33.00
2023-01-29T11:53:01.942Z,33.08
2023-01-29T11:55:48.174Z,34.85
2023-01-29T11:58:30.674Z,34.45
2023-01-29T12:00:58.649Z,32.13
2023-01-29T12:03:41.447Z,33.20
2023-01-29T12:06:19.829Z,33.83
2023-01-29T12:08:58.362Z,34.63
2023-01-29T12:11:30.161Z,35.15
2023-01-29T12:13:59.970Z,34.65
2023-01-29T12:16:35.591Z,34.72
2023-01-29T12:19:29.305Z,36.42
2023-01-29T12:22:01.146Z,34.35
2023-01-29T12:24:44.215Z,32.75
2023-01-29T12:27:26.863Z,36.08
2023-01-29T12:30:25.854Z,35.80
2023-01-29T12:32:56.736Z,35.10
2023-01-29T12:35:35.689Z,32.88
2023-01-29T12:38:04.215Z,34.72
2023-01-29T12:40:41.845Z,34.28
2023-01-29T12:43:18.973Z,36.00
2023-01-29T12:45:48.807Z,34.05
2023-01-29T12:48:20.004Z,34.40
2023-01-29T12:50:47.524Z,34.85
2023-01-29T12:53:20.708Z,38.20
2023-01-29T12:55:50.125Z,37.03
2023-01-29T12:58:21.748Z,34.72
2023-01-29T13:00:58.659Z,36.03
2023-01-29T13:03:29.074Z,34.25
2023-01-29T13:05:57.925Z,34.10
2023-01-29T13:10:53.842Z,35.17
2023-01-29T13:15:48.691Z,38.15
2023-01-29T13:18:38.524Z,35.13
2023-01-29T13:21:06.286Z,34.88
2023-01-29T13:23:41.341Z,34.88
2023-01-29T13:26:08.808Z,34.90
2023-01-29T13:28:37.079Z,33.90
2023-01-29T13:31:31.522Z,34.30
2023-01-29T13:34:13.385Z,37.53
2023-01-29T13:36:47.539Z,31.75
2023-01-29T13:39:37.531Z,31.83
2023-01-29T13:42:16.809Z,33.58
2023-01-29T13:44:49.269Z,32.00
2023-01-29T13:47:43.295Z,31.65
2023-01-29T13:50:38.767Z,32.70
2023-01-29T13:53:08.233Z,30.20
2023-01-29T13:55:40.039Z,31.70
2023-01-29T13:58:13.929Z,30.77
2023-01-29T14:00:40.551Z,31.25
2023-01-29T14:03:13.355Z,28.30
2023-01-29T14:05:44.270Z,30.13
2023-01-29T14:08:14.039Z,30.50
2023-01-29T14:10:42.826Z,28.85
2023-01-29T14:13:18.597Z,29.17
2023-01-29T14:16:06.141Z,28.80
2023-01-29T14:18:35.075Z,30.60
2023-01-29T14:21:07.075Z,29.98
2023-01-29T14:23:36.180Z,28.02
2023-01-29T14:26:19.627Z,29.60
2023-01-29T14:29:07.552Z,31.75
2023-01-29T14:31:51.978Z,29.75
2023-01-29T14:34:27.443Z,27.98
2023-01-29T14:36:57.205Z,30.08
2023-01-29T14:39:31.351Z,28.38
2023-01-29T14:41:59.337Z,31.27
2023-01-29T14:44:44.683Z,29.63
2023-01-29T14:47:21.503Z,28.13
2023-01-29T14:49:54.192Z,29.30
2023-01-29T14:52:35.877Z,28.95
2023-01-29T14:55:07.086Z,29.02
2023-01-29T14:57:35.809Z,29.92
2023-01-29T15:00:06.257Z,29.80
2023-01-29T15:02:44.646Z,27.33
2023-01-29T15:05:20.067Z,30.08
2023-01-29T15:07:56.993Z,27.98
2023-01-29T15:10:42.061Z,29.00
2023-01-29T15:13:18.469Z,27.98
2023-01-29T15:15:54.204Z,29.42
2023-01-29T15:18:32.737Z,29.10
2023-01-29T15:21:05.935Z,28.73
2023-01-29T15:23:34.247Z,29.38
2023-01-29T15:26:04.259Z,27.80
2023-01-29T15:28:33.136Z,27.92
2023-01-29T15:33:28.437Z,27.20
2023-01-29T15:36:07.619Z,27.13
2023-01-29T15:38:37.693Z,27.20
2023-01-29T15:41:16.321Z,26.73
2023-01-29T15:43:57.522Z,25.90
2023-01-29T15:46:29.009Z,25.33
2023-01-29T15:48:59.491Z,27.27
2023-01-29T15:51:27.929Z,31.83
2023-01-29T15:53:57.976Z,27.35
2023-01-29T15:56:29.248Z,28.02
2023-01-29T15:58:58.949Z,27.70
2023-01-29T16:01:29.421Z,26.38
2023-01-29T16:03:59.452Z,26.05
2023-01-29T16:06:37.858Z,28.90
2023-01-29T16:09:05.996Z,29.10
2023-01-29T16:11:34.527Z,28.50
2023-01-29T16:14:02.727Z,28.83
2023-01-29T16:16:29.560Z,28.27
2023-01-29T16:19:01.263Z,29.08
2023-01-29T16:21:31.066Z,26.92
2023-01-29T16:24:01.902Z,28.23
2023-01-29T16:26:32.950Z,26.08
2023-01-29T16:29:05.440Z,28.25
2023-01-29T16:31:33.068Z,30.67
2023-01-29T16:34:18.137Z,28.92
2023-01-29T16:36:47.472Z,27.67
2023-01-29T16:39:27.085Z,28.00
2023-01-29T16:42:22.825Z,29.48
2023-01-29T16:45:03.014Z,30.35
2023-01-29T16:47:29.746Z,29.08
2023-01-29T16:49:59.433Z,33.50
2023-01-29T16:52:26.115Z,32.88
2023-01-29T16:54:58.448Z,31.65
2023-01-29T16:57:31.595Z,30.85
2023-01-29T17:00:01.610Z,31.48
2023-01-29T17:02:35.878Z,29.33
2023-01-29T17:05:09.993Z,31.67
2023-01-29T17:07:37.908Z,33.75
2023-01-29T17:10:06.551Z,35.50
2023-01-29T17:12:34.242Z,32.60
2023-01-29T17:15:04.574Z,30.15
2023-01-29T17:17:33.703Z,32.65
2023-01-29T17:20:27.879Z,30.60
2023-01-29T17:22:54.788Z,33.80
2023-01-29T17:25:22.074Z,31.30
2023-01-29T17:27:51.760Z,41.65
2023-01-29T17:30:22.239Z,33.75
2023-01-29T17:32:49.122Z,34.33
2023-01-29T17:35:17.401Z,35.40
2023-01-29T17:37:44.510Z,35.97
2023-01-29T17:40:36.263Z,31.90
2023-01-29T17:43:02.995Z,38.33
2023-01-29T17:45:29.717Z,31.08
2023-01-29T17:47:56.479Z,39.05
2023-01-29T17:50:27.270Z,33.03
2023-01-29T17:52:54.082Z,34.67
2023-01-29T17:55:21.145Z,35.45
2023-01-29T17:57:47.802Z,39.85
2023-01-29T18:00:20.486Z,37.17
2023-01-29T18:02:47.417Z,36.92
2023-01-29T18:05:15.791Z,36.55
2023-01-29T18:07:45.865Z,43.97
2023-01-29T18:10:20.645Z,40.20
2023-01-29T18:12:47.636Z,40.15
2023-01-29T18:15:15.121Z,36.35
2023-01-29T18:17:42.304Z,41.10
2023-01-29T18:20:17.749Z,43.88
2023-01-29T18:22:44.988Z,44.28
2023-01-29T18:25:12.274Z,37.85
2023-01-29T18:27:39.041Z,37.17
2023-01-29T18:30:06.558Z,36.85
2023-01-29T18:32:33.233Z,43.47
2023-01-29T18:35:00.025Z,39.33
2023-01-29T18:37:26.874Z,40.20
2023-01-29T18:39:53.882Z,43.47
2023-01-29T18:42:20.665Z,36.22
2023-01-29T18:44:47.440Z,40.47
2023-01-29T18:47:14.289Z,41.53
2023-01-29T18:49:40.978Z,39.03
2023-01-29T18:52:08.329Z,35.38
2023-01-29T18:54:34.991Z,38.15
2023-01-29T18:57:08.783Z,41.90
2023-01-29T18:59:41.018Z,35.45
2023-01-29T19:02:08.058Z,39.42
2023-01-29T19:04:34.899Z,47.78
2023-01-29T19:07:01.681Z,32.28
2023-01-29T19:09:28.459Z,40.28
2023-01-29T19:11:55.251Z,36.30
2023-01-29T19:14:21.959Z,36.03
2023-01-29T19:16:49.623Z,54.55
2023-01-29T19:19:16.888Z,39.78
2023-01-29T19:21:43.638Z,39.88
2023-01-29T19:24:11.716Z,33.95
2023-01-29T19:26:38.473Z,40.80
2023-01-29T19:29:05.170Z,38.92
2023-01-29T19:31:31.970Z,33.17
2023-01-29T19:33:58.829Z,32.78
2023-01-29T19:36:26.076Z,33.33
2023-01-29T19:38:52.712Z,34.25
2023-01-29T19:41:19.519Z,32.53
2023-01-29T19:43:48.150Z,36.42
2023-01-29T19:46:15.808Z,33.60
2023-01-29T19:48:42.483Z,37.38
2023-01-29T19:51:13.490Z,33.92
2023-01-29T19:53:45.332Z,34.50
2023-01-29T19:56:15.394Z,30.48
2023-01-29T19:58:42.747Z,33.08
2023-01-29T20:01:20.955Z,30.85
2023-01-29T20:03:49.195Z,38.50
2023-01-29T20:06:19.348Z,32.05
2023-01-29T20:08:46.661Z,35.80
2023-01-29T20:11:18.385Z,35.17
2023-01-29T20:13:47.484Z,32.35
2023-01-29T20:16:14.310Z,34.97
2023-01-29T20:18:41.028Z,34.45
2023-01-29T20:21:10.712Z,36.03
2023-01-29T20:23:39.736Z,40.17
2023-01-29T20:26:08.050Z,36.58
2023-01-29T20:28:35.039Z,38.95
2023-01-29T20:31:02.027Z,37.30
2023-01-29T20:33:29.064Z,40.47
2023-01-29T20:36:00.239Z,34.83
2023-01-29T20:38:30.526Z,38.70
2023-01-29T20:41:17.742Z,39.50
2023-01-29T20:43:45.665Z,37.92
2023-01-29T20:46:13.198Z,38.90
2023-01-29T20:48:42.079Z,41.50
2023-01-29T20:51:13.643Z,38.67
2023-01-29T20:53:41.136Z,41.50
2023-01-29T20:56:09.109Z,44.00
2023-01-29T20:58:38.488Z,41.30
2023-01-29T21:01:15.431Z,39.42
2023-01-29T21:03:42.649Z,46.45
2023-01-29T21:06:10.874Z,43.30
2023-01-29T21:08:37.889Z,42.40
2023-01-29T21:11:06.561Z,52.05
2023-01-29T21:13:33.718Z,44.78
2023-01-29T21:16:00.578Z,45.33
2023-01-29T21:18:27.238Z,53.75
2023-01-29T21:20:54.322Z,40.83
2023-01-29T21:23:24.003Z,47.63
2023-01-29T21:25:50.806Z,47.00
2023-01-29T21:28:17.574Z,47.03
2023-01-29T21:30:44.468Z,46.65
2023-01-29T21:33:11.345Z,44.10
2023-01-29T21:35:38.455Z,48.63
2023-01-29T21:38:05.155Z,45.83
2023-01-29T21:40:31.950Z,44.13
2023-01-29T21:43:15.312Z,57.17
2023-01-29T21:45:42.714Z,50.08
2023-01-29T21:48:11.197Z,43.20
2023-01-29T21:50:38.353Z,49.25
2023-01-29T21:53:05.159Z,47.75
2023-01-29T21:55:32.744Z,43.97
2023-01-29T21:58:00.313Z,39.28
2023-01-29T22:00:28.337Z,50.60
2023-01-29T22:02:55.159Z,43.70
2023-01-29T22:05:21.942Z,53.20
2023-01-29T22:07:49.536Z,45.28
2023-01-29T22:10:17.717Z,45.60
2023-01-29T22:12:45.020Z,47.30
2023-01-29T22:15:13.576Z,44.05
2023-01-29T22:17:41.508Z,47.17
2023-01-29T22:20:13.701Z,48.30
2023-01-29T22:22:40.661Z,42.72
2023-01-29T22:25:07.685Z,41.22
2023-01-29T22:27:34.803Z,38.63
2023-01-29T22:30:01.563Z,43.35
2023-01-29T22:32:28.515Z,36.40
2023-01-29T22:34:55.327Z,40.35
2023-01-29T22:37:22.042Z,38.38
2023-01-29T22:39:48.840Z,40.55
2023-01-29T22:42:15.482Z,34.65
2023-01-29T22:44:42.696Z,41.50
2023-01-29T22:47:09.434Z,37.42
2023-01-29T22:49:36.158Z,87.10
2023-01-29T22:52:11.865Z,47.28
2023-01-29T22:54:42.937Z,35.05
2023-01-29T22:57:14.952Z,43.53
2023-01-29T22:59:41.734Z,42.00
2023-01-29T23:02:08.846Z,35.45
2023-01-29T23:04:35.813Z,42.85
2023-01-29T23:07:02.728Z,33.70
2023-01-29T23:09:29.492Z,44.33
2023-01-29T23:11:56.223Z,37.05
2023-01-29T23:14:22.951Z,36.85
2023-01-29T23:16:49.708Z,42.17
2023-01-29T23:19:16.466Z,43.88
2023-01-29T23:21:43.384Z,38.72
2023-01-29T23:24:10.577Z,44.58
2023-01-29T23:26:56.276Z,36.90
2023-01-29T23:29:23.328Z,39.45
2023-01-29T23:31:50.157Z,41.85
2023-01-29T23:34:17.089Z,37.05
2023-01-29T23:36:44.126Z,33.45
2023-01-29T23:39:11.227Z,33.60
2023-01-29T23:41:37.984Z,34.53
2023-01-29T23:44:05.062Z,34.17
2023-01-29T23:46:37.270Z,30.60
2023-01-29T23:49:04.240Z,31.42
2023-01-29T23:51:31.074Z,36.53
2023-01-29T23:53:57.946Z,34.97
2023-01-29T23:56:24.643Z,39.13
2023-01-29T23:58:55.907Z,31.20
